Time;durP1;ratioP1;P1;durP2;ratioP2;P2;SDS_P1;SDS_P2;PMS_P1;PMS_P2;Temp;Humidity;BMP_temperature;BMP_pressure;BME280_temperature;BME280_humidity;BME280_pressure;Samples;Min_cycle;Max_cycle;Signal;HPM_P1;HPM_P2
2022/08/25 00:01:38;;;;;;;10.80;6.22;;;17.10;99.90;;;;;;5009351;28;20209;-64
2022/08/25 00:04:09;;;;;;;12.25;6.60;;;17.00;99.90;;;;;;5013504;28;20080;-65
2022/08/25 00:06:35;;;;;;;;;;;17.10;99.90;;;;;;4990285;28;20057;-65
2022/08/25 00:09:01;;;;;;;10.45;6.45;;;17.10;99.90;;;;;;5012790;28;20040;-65
2022/08/25 00:11:29;;;;;;;12.85;6.60;;;17.10;99.90;;;;;;4990300;28;20442;-66
2022/08/25 00:13:59;;;;;;;10.27;6.22;;;17.10;99.90;;;;;;5000131;28;20037;-65
2022/08/25 00:16:26;;;;;;;11.25;6.70;;;17.10;99.90;;;;;;5008758;28;20112;-65
2022/08/25 00:18:56;;;;;;;13.25;7.22;;;16.90;99.90;;;;;;5013093;28;20033;-65
2022/08/25 00:21:24;;;;;;;10.93;6.40;;;16.80;99.90;;;;;;5008964;28;20065;-67
2022/08/25 00:23:50;;;;;;;11.32;7.05;;;16.90;99.90;;;;;;5005950;28;20275;-65
2022/08/25 00:26:16;;;;;;;15.00;6.85;;;16.80;99.90;;;;;;5009112;28;20468;-64
2022/08/25 00:28:43;;;;;;;13.15;7.20;;;16.90;99.90;;;;;;5003844;28;20079;-65
2022/08/25 00:31:14;;;;;;;13.85;7.20;;;16.80;99.90;;;;;;5007801;28;20037;-66
2022/08/25 00:33:42;;;;;;;11.73;7.43;;;16.90;99.90;;;;;;5005642;28;20488;-65
2022/08/25 00:36:11;;;;;;;10.32;6.75;;;16.80;99.90;;;;;;5008853;28;20045;-66
2022/08/25 00:38:40;;;;;;;14.38;7.00;;;16.80;99.90;;;;;;5006097;28;20033;-66
2022/08/25 00:41:06;;;;;;;11.50;6.93;;;16.80;99.90;;;;;;5008480;28;20033;-65
2022/08/25 00:43:41;;;;;;;12.60;7.10;;;16.70;99.90;;;;;;5006534;28;20072;-70
2022/08/25 00:46:08;;;;;;;12.38;7.45;;;16.70;99.90;;;;;;5006921;28;20054;-66
2022/08/25 00:48:34;;;;;;;11.65;6.72;;;16.60;99.90;;;;;;5007235;28;20046;-71
2022/08/25 00:51:02;;;;;;;12.85;7.00;;;16.60;99.90;;;;;;5008247;28;20121;-65
2022/08/25 00:53:29;;;;;;;15.32;7.55;;;16.50;99.90;;;;;;5008684;28;20030;-67
2022/08/25 00:55:57;;;;;;;12.70;6.95;;;16.60;99.90;;;;;;5007449;28;20104;-66
2022/08/25 00:58:27;;;;;;;15.38;7.47;;;16.60;99.90;;;;;;5013842;28;20753;-66
2022/08/25 01:00:56;;;;;;;12.07;7.22;;;16.70;99.90;;;;;;5011932;28;20057;-67
2022/08/25 01:03:25;;;;;;;14.90;7.75;;;16.70;99.90;;;;;;4995373;28;20033;-66
2022/08/25 01:05:52;;;;;;;14.93;7.28;;;16.70;99.90;;;;;;5010559;28;20033;-66
2022/08/25 01:08:21;;;;;;;16.17;7.40;;;16.70;99.90;;;;;;5012838;28;20033;-66
2022/08/25 01:10:48;;;;;;;12.07;7.07;;;16.70;99.90;;;;;;5028175;28;20083;-67
2022/08/25 01:13:22;;;;;;;11.93;6.93;;;16.70;99.90;;;;;;5019514;28;20026;-66
2022/08/25 01:15:53;;;;;;;15.10;7.65;;;16.70;99.90;;;;;;5000195;28;20065;-67
2022/08/25 01:18:20;;;;;;;13.43;7.35;;;16.60;99.90;;;;;;5008917;28;20037;-67
2022/08/25 01:21:04;;;;;;;15.27;6.97;;;16.60;99.90;;;;;;4990870;28;20799;-65
2022/08/25 01:23:31;;;;;;;12.52;7.25;;;16.50;99.90;;;;;;5007128;28;20046;-65
2022/08/25 01:26:11;;;;;;;11.73;7.22;;;16.40;99.90;;;;;;4990735;28;20057;-66
2022/08/25 01:29:19;;;;;;;11.60;6.88;;;16.40;99.90;;;;;;5002711;28;20105;-70
2022/08/25 01:31:25;;;;;;;11.65;7.05;;;16.50;99.90;;;;;;5009212;28;20033;-64
2022/08/25 01:33:51;;;;;;;11.68;6.72;;;16.50;99.90;;;;;;5009377;28;20132;-65
2022/08/25 01:36:18;;;;;;;12.32;7.50;;;16.40;99.90;;;;;;5011951;28;20121;-66
2022/08/25 01:38:44;;;;;;;11.57;7.22;;;16.50;99.90;;;;;;5010099;28;20036;-65
2022/08/25 01:41:10;;;;;;;13.55;7.10;;;16.40;99.90;;;;;;5011322;28;20027;-65
2022/08/25 01:43:37;;;;;;;12.02;6.18;;;16.30;99.90;;;;;;5010621;28;20527;-71
2022/08/25 01:46:03;;;;;;;11.27;6.38;;;16.30;99.90;;;;;;5010818;28;20092;-66
2022/08/25 01:48:31;;;;;;;13.38;7.13;;;16.20;99.90;;;;;;5011309;28;20042;-65
2022/08/25 01:50:57;;;;;;;12.07;7.20;;;16.20;99.90;;;;;;5030126;28;20632;-65
2022/08/25 01:53:30;;;;;;;15.05;8.10;;;16.20;99.90;;;;;;5014436;28;20044;-65
2022/08/25 01:56:00;;;;;;;12.40;7.55;;;16.20;99.90;;;;;;5016675;28;20520;-65
2022/08/25 01:58:36;;;;;;;14.68;7.72;;;16.10;99.90;;;;;;5010056;28;20065;-66
2022/08/25 02:01:06;;;;;;;15.80;8.85;;;16.10;99.90;;;;;;5030861;28;20040;-66
2022/08/25 02:03:32;;;;;;;14.65;8.77;;;16.00;99.90;;;;;;5013354;28;20500;-66
2022/08/25 02:06:00;;;;;;;12.68;8.15;;;16.00;99.90;;;;;;5020717;28;20523;-66
2022/08/25 02:08:25;;;;;;;15.68;7.93;;;16.00;99.90;;;;;;5011656;28;20037;-65
2022/08/25 02:10:54;;;;;;;14.00;7.70;;;16.00;99.90;;;;;;5013278;28;20372;-64
2022/08/25 02:13:20;;;;;;;15.90;7.97;;;16.00;99.90;;;;;;5011012;28;20079;-65
2022/08/25 02:15:50;;;;;;;19.48;9.57;;;15.90;99.90;;;;;;5021313;28;20507;-66
2022/08/25 02:18:17;;;;;;;16.43;9.43;;;15.90;99.90;;;;;;4996213;28;20046;-65
2022/08/25 02:20:42;;;;;;;18.45;9.35;;;15.80;99.90;;;;;;5004776;28;20038;-66
2022/08/25 02:23:09;;;;;;;14.50;8.73;;;15.80;99.90;;;;;;5006447;28;20033;-66
2022/08/25 02:25:37;;;;;;;16.65;9.63;;;15.80;99.90;;;;;;5007781;28;20026;-64
2022/08/25 02:28:03;;;;;;;18.20;9.10;;;15.80;99.90;;;;;;5008506;28;20041;-66
2022/08/25 02:30:29;;;;;;;16.58;9.27;;;15.90;99.90;;;;;;5009888;28;20105;-67
2022/08/25 02:32:56;;;;;;;14.77;8.32;;;15.80;99.90;;;;;;5008889;28;20049;-64
2022/08/25 02:35:22;;;;;;;25.90;9.20;;;15.80;99.90;;;;;;5007926;28;20061;-65
2022/08/25 02:37:50;;;;;;;17.25;8.90;;;15.70;99.90;;;;;;5006787;28;20515;-67
2022/08/25 02:40:16;;;;;;;16.80;8.48;;;15.70;99.90;;;;;;5005165;28;20552;-65
2022/08/25 02:42:42;;;;;;;17.35;8.65;;;15.70;99.90;;;;;;5011281;28;20061;-72
2022/08/25 02:45:08;;;;;;;16.52;9.15;;;15.60;99.90;;;;;;5010161;28;20728;-66
2022/08/25 02:47:35;;;;;;;17.88;9.43;;;15.50;99.90;;;;;;5006116;28;20046;-66
2022/08/25 02:50:04;;;;;;;14.30;8.18;;;15.50;99.90;;;;;;5003915;28;20033;-65
2022/08/25 02:52:30;;;;;;;19.05;8.90;;;15.50;99.90;;;;;;5007479;28;20033;-67
2022/08/25 02:54:56;;;;;;;18.70;9.00;;;15.50;99.90;;;;;;5007288;28;20034;-65
2022/08/25 02:57:22;;;;;;;17.75;9.60;;;15.50;99.90;;;;;;5022919;28;20087;-65
2022/08/25 02:59:47;;;;;;;16.27;9.65;;;15.60;99.90;;;;;;5010945;28;20030;-67
2022/08/25 03:02:15;;;;;;;17.88;9.85;;;15.60;99.90;;;;;;5015582;28;20040;-66
2022/08/25 03:04:41;;;;;;;19.05;9.73;;;15.60;99.90;;;;;;4991572;28;20042;-71
2022/08/25 03:07:07;;;;;;;18.15;9.10;;;15.60;99.90;;;;;;5009537;28;20084;-66
2022/08/25 03:09:33;;;;;;;15.82;9.13;;;15.60;99.90;;;;;;5010266;28;20407;-64
2022/08/25 03:11:58;;;;;;;17.95;8.68;;;15.60;99.90;;;;;;5008986;28;20033;-65
2022/08/25 03:14:24;;;;;;;18.27;9.20;;;15.60;99.90;;;;;;5009398;28;20030;-64
2022/08/25 03:16:50;;;;;;;14.88;9.02;;;15.60;99.90;;;;;;5009141;28;20464;-64
2022/08/25 03:19:17;;;;;;;17.10;9.07;;;15.60;99.90;;;;;;5009868;28;20064;-64
2022/08/25 03:21:44;;;;;;;16.80;9.25;;;15.50;99.90;;;;;;4991855;28;20033;-70
2022/08/25 03:24:10;;;;;;;14.32;7.90;;;15.50;99.90;;;;;;5009742;28;20034;-64
2022/08/25 03:26:52;;;;;;;19.75;9.00;;;15.50;99.90;;;;;;5007273;28;20857;-64
2022/08/25 03:29:22;;;;;;;16.50;8.93;;;15.40;99.90;;;;;;5008587;28;20029;-65
2022/08/25 03:31:49;;;;;;;15.40;8.70;;;15.50;99.90;;;;;;5008622;28;20077;-65
2022/08/25 03:34:16;;;;;;;17.40;9.18;;;15.50;99.90;;;;;;5010597;28;20121;-64
2022/08/25 03:36:43;;;;;;;16.75;9.30;;;15.50;99.90;;;;;;5009406;28;20033;-70
2022/08/25 03:39:10;;;;;;;16.55;9.27;;;15.50;99.90;;;;;;5009058;28;20021;-65
2022/08/25 03:41:36;;;;;;;15.23;8.70;;;15.50;99.90;;;;;;5009543;28;20029;-66
2022/08/25 03:44:03;;;;;;;18.70;9.48;;;15.40;99.90;;;;;;5006950;28;20030;-65
2022/08/25 03:46:36;;;;;;;15.82;9.23;;;15.40;99.90;;;;;;5009523;28;20034;-66
2022/08/25 03:49:03;;;;;;;17.77;9.02;;;15.30;99.90;;;;;;5009080;28;20033;-67
2022/08/25 03:51:32;;;;;;;14.95;8.90;;;15.20;99.90;;;;;;5009354;28;20121;-64
2022/08/25 03:53:59;;;;;;;21.45;9.48;;;15.30;99.90;;;;;;5007980;28;20035;-66
2022/08/25 03:56:26;;;;;;;16.23;9.38;;;15.30;99.90;;;;;;5009249;28;20038;-64
2022/08/25 03:58:53;;;;;;;15.60;9.07;;;15.30;99.90;;;;;;5006760;28;20069;-65
2022/08/25 04:01:19;;;;;;;15.60;8.38;;;15.30;99.90;;;;;;5009583;28;20033;-68
2022/08/25 04:03:45;;;;;;;13.45;8.18;;;15.20;99.90;;;;;;5009237;28;20507;-70
2022/08/25 04:06:12;;;;;;;17.55;8.25;;;15.10;99.90;;;;;;5006617;28;20022;-64
2022/08/25 04:08:38;;;;;;;14.00;7.95;;;15.10;99.90;;;;;;5003507;28;20096;-66
2022/08/25 04:11:16;;;;;;;15.60;8.18;;;15.10;99.90;;;;;;5004039;28;20723;-66
2022/08/25 04:13:44;;;;;;;13.45;7.82;;;15.10;99.90;;;;;;5009684;28;20041;-67
2022/08/25 04:16:21;;;;;;;18.33;8.57;;;15.10;99.90;;;;;;5006919;28;20030;-64
2022/08/25 04:18:48;;;;;;;22.98;8.52;;;15.00;99.90;;;;;;5009339;28;20548;-70
2022/08/25 04:21:15;;;;;;;16.40;9.30;;;14.80;99.90;;;;;;5009908;28;20030;-64
2022/08/25 04:23:43;;;;;;;16.27;9.07;;;14.80;99.90;;;;;;5009932;28;20033;-64
2022/08/25 04:26:24;;;;;;;15.30;9.15;;;14.80;99.90;;;;;;5009103;28;20048;-66
2022/08/25 04:28:51;;;;;;;18.25;8.73;;;14.80;99.90;;;;;;5007538;28;20033;-65
2022/08/25 04:31:20;;;;;;;17.77;9.25;;;14.80;99.90;;;;;;5009551;28;20044;-66
2022/08/25 04:33:46;;;;;;;20.88;9.27;;;14.70;99.90;;;;;;5010360;28;20037;-70
2022/08/25 04:36:13;;;;;;;17.08;9.70;;;14.80;99.90;;;;;;5008655;28;20034;-66
2022/08/25 04:38:40;;;;;;;16.70;9.63;;;14.80;99.90;;;;;;5007417;28;20042;-66
2022/08/25 04:41:08;;;;;;;17.45;9.05;;;14.80;99.90;;;;;;5007924;28;20026;-64
2022/08/25 04:43:35;;;;;;;16.38;9.55;;;14.80;99.90;;;;;;5008694;28;20152;-65
2022/08/25 04:46:06;;;;;;;17.80;9.93;;;14.80;99.90;;;;;;5008651;28;20018;-64
2022/08/25 04:48:33;;;;;;;19.63;10.05;;;14.80;99.90;;;;;;5009683;28;20473;-64
2022/08/25 04:51:04;;;;;;;17.75;9.95;;;14.90;99.90;;;;;;5008682;28;20033;-65
2022/08/25 04:53:31;;;;;;;19.58;10.10;;;14.90;99.90;;;;;;5008860;28;20026;-64
2022/08/25 04:55:57;;;;;;;18.02;9.25;;;14.90;99.90;;;;;;4989696;28;20033;-66
2022/08/25 04:58:23;;;;;;;19.50;9.43;;;14.90;99.90;;;;;;5007559;28;20538;-65
2022/08/25 05:00:48;;;;;;;17.33;8.90;;;14.90;99.90;;;;;;5007817;28;20038;-69
2022/08/25 05:03:14;;;;;;;20.25;9.25;;;14.90;99.90;;;;;;5012345;28;20498;-65
2022/08/25 05:05:40;;;;;;;18.83;9.82;;;14.90;99.90;;;;;;5013297;28;20540;-65
2022/08/25 05:08:06;;;;;;;18.63;10.38;;;15.00;99.90;;;;;;5012704;28;20065;-65
2022/08/25 05:10:32;;;;;;;20.48;10.43;;;15.00;99.90;;;;;;5012552;28;20029;-66
2022/08/25 05:12:58;;;;;;;20.63;10.63;;;15.00;99.90;;;;;;5012776;28;20034;-67
2022/08/25 05:18:10;;;;;;;18.00;10.23;;;15.20;99.90;;;;;;5011044;28;20093;-65
2022/08/25 05:20:36;;;;;;;15.10;8.70;;;15.40;99.90;;;;;;5013025;28;20021;-65
2022/08/25 05:23:02;;;;;;;15.38;9.00;;;15.50;99.90;;;;;;5012062;28;20088;-65
2022/08/25 05:25:28;;;;;;;14.25;8.13;;;15.40;99.90;;;;;;5013145;28;20030;-67
2022/08/25 05:27:54;;;;;;;18.00;9.82;;;15.50;99.90;;;;;;5012111;28;20044;-66
2022/08/25 05:30:19;;;;;;;15.32;8.95;;;15.60;99.90;;;;;;5009656;28;20080;-65
2022/08/25 05:32:45;;;;;;;15.50;9.02;;;15.70;99.90;;;;;;5010261;28;20133;-63
2022/08/25 05:35:11;;;;;;;17.55;9.88;;;15.80;99.90;;;;;;5010008;28;20267;-65
2022/08/25 05:37:36;;;;;;;19.15;10.02;;;15.90;99.90;;;;;;4992410;28;20366;-66
2022/08/25 05:40:07;;;;;;;18.23;10.02;;;15.90;99.90;;;;;;5011915;28;20025;-65
2022/08/25 05:42:33;;;;;;;13.48;8.25;;;16.00;99.90;;;;;;5005877;28;20115;-66
2022/08/25 05:44:59;;;;;;;17.38;8.18;;;16.10;99.90;;;;;;4991636;28;20034;-63
2022/08/25 05:47:24;;;;;;;13.95;8.40;;;16.10;99.90;;;;;;5010126;28;20048;-63
2022/08/25 05:49:50;;;;;;;20.08;10.30;;;16.20;99.90;;;;;;5008842;28;20528;-71
2022/08/25 05:52:16;;;;;;;17.15;9.68;;;16.30;99.90;;;;;;5006639;28;20045;-68
2022/08/25 05:54:41;;;;;;;20.00;10.65;;;16.50;99.90;;;;;;5002782;28;20072;-66
2022/08/25 05:57:08;;;;;;;20.85;11.02;;;16.80;99.90;;;;;;4991861;28;20078;-66
2022/08/25 05:59:34;;;;;;;20.27;11.18;;;16.90;99.90;;;;;;4992689;28;20081;-67
2022/08/25 06:04:44;;;;;;;18.83;10.15;;;17.20;99.90;;;;;;5012448;28;20036;-65
2022/08/25 06:07:10;;;;;;;16.60;10.75;;;17.50;99.90;;;;;;5011247;28;20049;-64
2022/08/25 06:09:38;;;;;;;18.58;10.10;;;17.60;99.90;;;;;;5012425;28;20026;-65
2022/08/25 06:12:04;;;;;;;20.88;10.80;;;17.80;99.90;;;;;;5011190;28;20479;-65
2022/08/25 06:14:30;;;;;;;19.77;10.55;;;17.90;99.90;;;;;;5012155;28;20026;-65
2022/08/25 06:16:56;;;;;;;17.10;10.23;;;18.10;99.90;;;;;;5009942;28;20121;-66
2022/08/25 06:19:23;;;;;;;13.75;8.82;;;18.30;99.90;;;;;;5010787;28;20061;-66
2022/08/25 06:21:53;;;;;;;17.65;9.68;;;18.40;99.90;;;;;;5011882;28;20492;-65
2022/08/25 06:24:18;;;;;;;14.88;9.27;;;18.50;99.90;;;;;;5011946;28;20461;-65
2022/08/25 06:26:44;;;;;;;17.45;10.30;;;18.50;99.90;;;;;;5012098;28;20030;-65
2022/08/25 06:29:11;;;;;;;17.10;9.60;;;18.50;99.90;;;;;;5011096;28;20033;-65
2022/08/25 06:31:36;;;;;;;24.15;11.32;;;18.70;99.90;;;;;;5010365;28;20539;-66
2022/08/25 06:34:02;;;;;;;17.30;10.52;;;18.70;99.90;;;;;;5009737;28;20130;-63
2022/08/25 06:36:28;;;;;;;18.38;10.65;;;18.90;99.90;;;;;;5011827;28;20534;-65
2022/08/25 06:38:53;;;;;;;18.13;11.15;;;19.20;99.90;;;;;;5011508;28;20064;-71
2022/08/25 06:41:19;;;;;;;22.15;11.75;;;19.40;99.90;;;;;;5011441;28;20026;-66
2022/08/25 06:43:44;;;;;;;19.13;10.90;;;19.60;99.90;;;;;;5011766;28;20030;-63
2022/08/25 06:46:16;;;;;;;18.30;10.57;;;19.80;99.90;;;;;;5007871;28;20054;-67
2022/08/25 06:48:42;;;;;;;24.23;10.75;;;20.00;99.90;;;;;;5009803;28;20480;-65
2022/08/25 06:51:11;;;;;;;19.48;10.68;;;20.10;99.90;;;;;;5006542;28;20034;-65
2022/08/25 06:53:37;;;;;;;19.75;10.73;;;20.30;99.90;;;;;;5014210;28;20029;-65
2022/08/25 06:56:04;;;;;;;19.75;11.88;;;20.40;99.90;;;;;;5010673;28;20449;-66
2022/08/25 06:58:30;;;;;;;20.25;10.32;;;20.40;99.90;;;;;;5021000;28;20033;-65
2022/08/25 07:00:56;;;;;;;19.42;11.23;;;20.50;99.90;;;;;;5010744;28;20037;-69
2022/08/25 07:03:22;;;;;;;19.02;10.52;;;20.70;99.90;;;;;;4998177;28;20034;-65
2022/08/25 07:05:55;;;;;;;22.23;11.38;;;20.80;99.90;;;;;;4988925;28;20140;-63
2022/08/25 07:08:22;;;;;;;20.15;10.35;;;20.90;99.90;;;;;;4991188;28;20091;-65
2022/08/25 07:10:48;;;;;;;19.70;11.02;;;21.00;99.90;;;;;;5025147;28;20475;-67
2022/08/25 07:13:14;;;;;;;19.52;11.10;;;21.10;99.90;;;;;;5002484;28;20083;-63
2022/08/25 07:15:41;;;;;;;16.83;10.38;;;21.10;99.90;;;;;;5019990;28;20037;-66
2022/08/25 07:18:07;;;;;;;16.58;10.65;;;21.30;99.90;;;;;;4997421;28;20030;-64
2022/08/25 07:20:36;;;;;;;19.42;10.02;;;21.40;99.90;;;;;;5000111;28;20458;-66
2022/08/25 07:23:02;;;;;;;15.90;9.68;;;21.60;99.90;;;;;;5011012;28;20029;-63
2022/08/25 07:25:28;;;;;;;18.92;10.48;;;21.70;99.90;;;;;;5030685;28;20068;-64
2022/08/25 07:27:54;;;;;;;16.52;10.05;;;21.60;99.90;;;;;;5018970;28;20073;-65
2022/08/25 07:30:20;;;;;;;16.98;10.05;;;21.70;99.90;;;;;;5007566;28;20045;-66
2022/08/25 07:32:45;;;;;;;17.92;10.27;;;21.80;99.90;;;;;;5007652;28;20092;-64
2022/08/25 07:35:14;;;;;;;14.13;8.65;;;21.90;99.90;;;;;;5009858;28;20491;-65
2022/08/25 07:37:41;;;;;;;15.35;8.95;;;22.10;99.90;;;;;;5010666;28;20121;-66
2022/08/25 07:40:09;;;;;;;16.13;9.82;;;22.20;99.90;;;;;;5009868;28;20033;-66
2022/08/25 07:42:36;;;;;;;17.35;9.98;;;22.30;99.90;;;;;;5010602;28;20076;-64
2022/08/25 07:45:04;;;;;;;18.45;10.05;;;22.50;99.90;;;;;;5009713;28;20396;-63
2022/08/25 07:47:30;;;;;;;17.05;9.90;;;22.70;99.90;;;;;;5009503;28;20029;-64
2022/08/25 07:49:56;;;;;;;21.67;9.20;;;22.80;99.90;;;;;;5009304;28;20076;-65
2022/08/25 07:52:22;;;;;;;15.07;9.80;;;22.80;99.90;;;;;;5009653;28;20125;-66
2022/08/25 07:54:48;;;;;;;14.55;9.35;;;22.80;99.90;;;;;;5010771;28;20723;-66
2022/08/25 07:57:13;;;;;;;17.20;9.13;;;22.90;99.90;;;;;;5009614;28;20485;-68
2022/08/25 07:59:42;;;;;;;20.08;9.77;;;22.90;99.90;;;;;;5008879;28;20111;-67
2022/08/25 08:02:10;;;;;;;16.63;9.50;;;22.90;99.90;;;;;;5009172;28;20551;-66
2022/08/25 08:04:36;;;;;;;15.65;9.13;;;23.00;99.90;;;;;;5010342;28;20495;-63
2022/08/25 08:07:02;;;;;;;13.90;9.20;;;23.00;99.90;;;;;;5009336;28;20036;-66
2022/08/25 08:09:30;;;;;;;17.98;8.98;;;23.20;99.90;;;;;;5010504;28;20030;-67
2022/08/25 08:11:56;;;;;;;21.13;9.18;;;23.30;99.90;;;;;;5010130;28;20057;-65
2022/08/25 08:14:22;;;;;;;15.45;8.63;;;23.30;99.90;;;;;;5006287;28;20859;-63
2022/08/25 08:16:48;;;;;;;20.45;8.65;;;23.50;99.90;;;;;;5010034;28;20026;-64
2022/08/25 08:19:15;;;;;;;14.82;8.60;;;23.70;99.90;;;;;;5009196;28;20400;-65
2022/08/25 08:21:41;;;;;;;14.88;8.82;;;23.70;99.90;;;;;;5010233;28;20057;-62
2022/08/25 08:24:07;;;;;;;18.10;8.68;;;23.70;99.90;;;;;;5008926;28;20033;-65
2022/08/25 08:26:33;;;;;;;12.65;8.48;;;23.70;99.90;;;;;;5008501;28;20578;-68
2022/08/25 08:28:59;;;;;;;12.57;8.18;;;23.70;99.90;;;;;;5008362;28;20128;-71
2022/08/25 08:31:27;;;;;;;13.93;8.93;;;23.90;99.90;;;;;;5009018;28;20044;-66
2022/08/25 08:33:54;;;;;;;17.45;8.23;;;24.10;99.90;;;;;;5009866;28;20452;-66
2022/08/25 08:36:21;;;;;;;15.20;7.80;;;24.10;99.90;;;;;;5008911;28;20036;-65
2022/08/25 08:38:47;;;;;;;16.63;7.70;;;24.20;99.90;;;;;;5009807;28;20033;-65
2022/08/25 08:44:48;;;;;;;12.40;8.25;;;24.10;99.90;;;;;;5008662;28;20037;-66
2022/08/25 08:47:51;;;;;;;13.70;8.05;;;24.20;99.90;;;;;;5008776;28;20472;-66
2022/08/25 08:50:36;;;;;;;34.97;9.05;;;24.40;99.90;;;;;;5008752;28;20486;-68
2022/08/25 08:53:07;;;;;;;12.50;8.07;;;24.50;99.90;;;;;;5009526;28;20028;-71
2022/08/25 08:55:41;;;;;;;15.98;8.05;;;24.60;99.90;;;;;;5009815;28;20037;-64
2022/08/25 08:58:20;;;;;;;12.10;8.10;;;24.60;99.90;;;;;;5007797;28;20080;-68
2022/08/25 09:00:54;;;;;;;12.15;7.90;;;24.70;99.90;;;;;;5009611;28;20080;-65
2022/08/25 09:03:45;;;;;;;11.77;7.20;;;24.70;99.90;;;;;;5008590;28;20069;-65
2022/08/25 09:06:21;;;;;;;11.60;7.63;;;24.90;99.90;;;;;;5008584;28;20488;-66
2022/08/25 09:08:47;;;;;;;13.13;7.45;;;24.90;99.90;;;;;;5009624;28;20469;-67
2022/08/25 09:11:36;;;;;;;11.20;6.95;;;25.00;99.90;;;;;;5007854;28;20033;-66
2022/08/25 09:14:24;;;;;;;11.52;7.20;;;25.10;99.90;;;;;;4989924;28;20034;-70
2022/08/25 09:17:08;;;;;;;13.43;7.85;;;25.10;99.90;;;;;;5009480;28;20101;-66
2022/08/25 09:20:11;;;;;;;10.82;6.80;;;25.40;99.90;;;;;;5009565;28;20425;-67
2022/08/25 09:23:01;;;;;;;12.27;6.95;;;25.60;99.90;;;;;;5009444;28;20038;-68
2022/08/25 09:25:44;;;;;;;;;;;25.60;99.90;;;;;;5009033;28;20058;-67
2022/08/25 09:28:31;;;;;;;9.77;6.38;;;25.70;99.90;;;;;;5007672;28;19921;-66
2022/08/25 09:31:04;;;;;;;12.18;6.97;;;25.80;99.90;;;;;;5009331;28;20034;-66
2022/08/25 09:33:33;;;;;;;12.02;7.53;;;25.70;99.90;;;;;;5009173;28;20088;-67
2022/08/25 09:35:59;;;;;;;14.15;7.63;;;25.80;99.90;;;;;;5006784;28;20057;-67
2022/08/25 09:38:28;;;;;;;14.25;7.75;;;25.90;99.90;;;;;;5008518;28;20069;-66
2022/08/25 09:40:57;;;;;;;10.63;7.20;;;26.10;99.90;;;;;;5009201;28;20038;-66
2022/08/25 09:43:23;;;;;;;12.20;7.40;;;25.90;99.90;;;;;;5008432;28;20057;-65
2022/08/25 09:45:59;;;;;;;12.40;7.88;;;26.00;99.90;;;;;;5006840;28;20076;-67
2022/08/25 09:48:39;;;;;;;11.55;7.78;;;26.20;99.90;;;;;;5011366;28;20033;-65
2022/08/25 09:51:27;;;;;;;10.30;7.43;;;26.40;99.90;;;;;;5012851;28;20034;-69
2022/08/25 09:54:07;;;;;;;14.80;7.47;;;26.40;99.90;;;;;;5002296;28;20281;-64
2022/08/25 09:56:46;;;;;;;10.35;7.18;;;26.60;99.90;;;;;;5012589;28;20030;-64
2022/08/25 09:59:34;;;;;;;11.32;7.35;;;26.50;99.90;;;;;;5011899;28;20644;-67
2022/08/25 10:02:03;;;;;;;11.27;7.53;;;26.80;99.90;;;;;;5012697;28;20041;-66
2022/08/25 10:04:35;;;;;;;9.57;7.05;;;27.00;99.90;;;;;;5011558;28;20045;-68
2022/08/25 10:07:05;;;;;;;9.93;7.13;;;27.10;99.90;;;;;;5011820;28;20081;-70
2022/08/25 10:09:37;;;;;;;9.80;6.60;;;27.40;99.00;;;;;;5009367;28;20083;-66
2022/08/25 10:12:16;;;;;;;10.88;7.00;;;27.40;97.50;;;;;;5011011;28;20481;-67
2022/08/25 10:14:42;;;;;;;9.57;6.43;;;27.40;97.80;;;;;;5011061;28;20033;-66
2022/08/25 10:17:29;;;;;;;9.27;6.97;;;27.60;97.60;;;;;;5012072;28;20042;-70
2022/08/25 10:20:14;;;;;;;9.80;6.70;;;27.80;97.00;;;;;;5012064;28;20029;-64
2022/08/25 10:22:41;;;;;;;11.52;7.28;;;28.10;96.20;;;;;;5012236;28;20066;-67
2022/08/25 10:25:10;;;;;;;17.33;7.72;;;28.30;96.30;;;;;;5009585;28;20046;-71
2022/08/25 10:28:00;;;;;;;9.98;6.82;;;28.20;95.70;;;;;;5011336;28;20038;-64
2022/08/25 10:30:49;;;;;;;11.55;7.53;;;27.90;96.00;;;;;;5010562;28;20109;-64
2022/08/25 10:33:26;;;;;;;10.63;7.60;;;27.80;95.10;;;;;;5011320;28;20076;-66
2022/08/25 10:36:05;;;;;;;11.27;6.82;;;27.90;95.60;;;;;;5006731;28;20279;-67
2022/08/25 10:38:42;;;;;;;7.65;6.10;;;27.80;95.40;;;;;;5004659;28;20080;-66
2022/08/25 10:41:23;;;;;;;9.32;6.93;;;27.80;94.70;;;;;;5007391;28;20091;-70
2022/08/25 10:43:53;;;;;;;9.35;6.75;;;27.50;94.50;;;;;;5007044;28;20526;-65
2022/08/25 10:46:56;;;;;;;9.23;6.90;;;27.30;94.80;;;;;;5007480;28;20045;-67
2022/08/25 10:49:36;;;;;;;12.30;7.22;;;27.20;94.90;;;;;;5006980;28;20052;-67
2022/08/25 10:52:20;;;;;;;11.43;6.40;;;27.20;94.90;;;;;;5010360;28;20034;-66
2022/08/25 10:54:56;;;;;;;9.48;6.70;;;27.60;95.50;;;;;;5021231;28;20034;-65
2022/08/25 10:57:45;;;;;;;9.57;6.97;;;28.00;94.90;;;;;;5008769;28;20468;-66
2022/08/25 11:00:17;;;;;;;12.00;7.00;;;28.40;94.00;;;;;;5005295;28;20038;-72
2022/08/25 11:03:05;;;;;;;10.68;7.10;;;28.40;94.40;;;;;;5008740;28;20117;-67
2022/08/25 11:06:00;;;;;;;11.10;7.25;;;28.40;92.80;;;;;;5006806;28;20060;-66
2022/08/25 11:08:42;;;;;;;11.77;7.20;;;28.20;93.20;;;;;;4998895;28;20058;-66
2022/08/25 11:11:20;;;;;;;10.30;6.65;;;28.50;93.20;;;;;;5011367;28;20514;-70
2022/08/25 11:13:59;;;;;;;11.00;7.03;;;28.50;92.70;;;;;;5011225;28;20026;-67
2022/08/25 11:16:44;;;;;;;9.05;6.28;;;28.60;91.00;;;;;;4997320;28;20119;-64
2022/08/25 11:19:54;;;;;;;8.88;6.25;;;28.80;90.90;;;;;;5004218;28;20084;-68
2022/08/25 11:22:32;;;;;;;23.60;7.35;;;28.70;90.60;;;;;;4925150;29;20483;-66
2022/08/25 11:25:20;;;;;;;9.10;5.80;;;29.20;91.20;;;;;;4916080;29;20067;-66
2022/08/25 11:27:59;;;;;;;10.38;6.32;;;29.70;90.50;;;;;;4906620;29;20052;-65
2022/08/25 11:30:25;;;;;;;11.80;6.45;;;30.00;87.10;;;;;;4894414;29;20040;-66
2022/08/25 11:32:53;;;;;;;15.18;6.72;;;30.30;87.90;;;;;;4907961;29;20060;-69
2022/08/25 11:35:34;;;;;;;10.07;6.45;;;30.20;84.90;;;;;;4907822;29;20123;-66
2022/08/25 11:38:24;;;;;;;10.57;5.90;;;29.90;82.90;;;;;;4926393;29;20042;-66
2022/08/25 11:40:56;;;;;;;8.63;6.22;;;29.80;86.40;;;;;;4910030;29;20075;-66
2022/08/25 11:43:28;;;;;;;10.13;6.30;;;29.90;86.00;;;;;;4913408;29;20032;-66
2022/08/25 11:46:02;;;;;;;7.88;6.05;;;30.30;82.90;;;;;;4914999;29;20131;-68
2022/08/25 11:48:50;;;;;;;12.63;6.28;;;30.70;83.40;;;;;;4912403;29;20047;-67
2022/08/25 11:51:39;;;;;;;12.27;6.18;;;30.60;82.00;;;;;;4917134;29;20087;-66
2022/08/25 11:54:27;;;;;;;12.23;6.75;;;30.10;79.70;;;;;;4997354;28;20041;-67
2022/08/25 11:57:07;;;;;;;7.72;6.18;;;29.50;82.60;;;;;;5008712;28;20041;-72
2022/08/25 11:59:48;;;;;;;11.05;6.35;;;29.40;81.80;;;;;;5008591;28;20018;-67
2022/08/25 12:02:39;;;;;;;8.65;6.15;;;29.50;85.20;;;;;;5007933;28;20033;-73
2022/08/25 12:05:34;;;;;;;10.10;7.00;;;29.80;82.10;;;;;;5008400;28;20042;-67
2022/08/25 12:11:05;;;;;;;24.80;7.03;;;29.50;81.60;;;;;;5009889;28;20126;-69
2022/08/25 12:13:50;;;;;;;10.00;6.07;;;28.80;84.60;;;;;;5008369;28;20021;-69
2022/08/25 12:16:37;;;;;;;7.90;6.15;;;28.70;86.90;;;;;;5008086;28;20036;-73
2022/08/25 12:19:27;;;;;;;8.50;6.20;;;28.50;86.50;;;;;;5004253;28;20051;-67
2022/08/25 12:21:55;;;;;;;10.13;6.22;;;28.70;85.10;;;;;;5004392;28;20408;-66
2022/08/25 12:24:41;;;;;;;9.88;6.18;;;28.70;84.20;;;;;;5006885;28;20057;-66
2022/08/25 12:27:28;;;;;;;9.40;6.50;;;28.70;83.70;;;;;;5006341;28;20026;-68
2022/08/25 12:30:10;;;;;;;10.50;6.50;;;28.40;83.40;;;;;;5008198;28;20030;-70
2022/08/25 12:33:03;;;;;;;10.57;6.70;;;28.40;85.80;;;;;;5004142;28;20069;-67
2022/08/25 12:36:02;;;;;;;9.32;6.10;;;29.00;83.50;;;;;;5007579;28;20030;-69
2022/08/25 12:38:43;;;;;;;8.35;5.93;;;29.10;81.10;;;;;;4989237;28;20030;-68
2022/08/25 12:41:17;;;;;;;9.88;6.60;;;29.40;82.60;;;;;;5003012;28;20053;-68
2022/08/25 12:43:48;;;;;;;10.80;6.32;;;29.50;81.60;;;;;;5008548;28;20036;-68
2022/08/25 12:46:21;;;;;;;9.70;6.05;;;29.40;81.90;;;;;;5008427;28;20030;-72
2022/08/25 12:48:56;;;;;;;12.63;6.22;;;29.00;81.10;;;;;;5006339;28;20040;-67
2022/08/25 12:51:25;;;;;;;12.88;6.50;;;28.90;80.50;;;;;;5003103;28;20037;-68
2022/08/25 12:54:11;;;;;;;7.85;5.57;;;28.90;83.80;;;;;;4998251;28;20478;-67
2022/08/25 12:56:43;;;;;;;10.77;5.57;;;28.80;80.20;;;;;;5006413;28;20160;-69
2022/08/25 12:59:23;;;;;;;8.60;6.50;;;28.80;80.30;;;;;;5006381;28;20041;-68
2022/08/25 13:02:16;;;;;;;10.88;6.80;;;28.60;79.00;;;;;;5008160;28;20041;-68
2022/08/25 13:04:57;;;;;;;8.85;6.00;;;28.50;79.30;;;;;;5003244;28;20041;-68
2022/08/25 13:07:35;;;;;;;8.77;6.65;;;29.20;85.40;;;;;;5008681;28;20041;-67
2022/08/25 13:10:28;;;;;;;9.43;5.90;;;29.80;82.00;;;;;;5007644;28;20080;-66
2022/08/25 13:13:15;;;;;;;8.40;6.00;;;30.00;77.90;;;;;;5009440;28;20553;-67